Superfun — ZCCL5 — position and weather

sailwx.info

Track history (hours):
 
Tides and Currents Weather Stations Pressure Air Temp Water Temp Dewpoint Dewpoint Depression Visibility Wind Speed Wind Dir Waves Ship Positions

Superfun

Last reported at 2016-Jul-22 17:30 UTC. Time now 2016-Jul-24 16:40 UTC.
Position N 43°17' E 006°38'.

Length 40 m.

Type: Other ship. MMSI: 319163000.

Date/timePositionNaut miles runAvg speedWind from/ knotsBaromVisibWave heightAir tempDewpointWater temp
2016-Jul-22 17:30N 43°17' E 006°38'44 1.6
2016-Jul-21 13:23N 43°44' E 007°26'0 0.0
2016-Jul-20 03:32N 43°44' E 007°26'6 0.6
2016-Jul-19 18:31N 43°42' E 007°19'0 0.2
2016-Jul-19 17:08N 43°42' E 007°19'0 0.0
2016-Jul-19 16:32N 43°42' E 007°19'2 2.5
2016-Jul-19 15:32N 43°41' E 007°15'8 8.5
2016-Jul-19 14:34N 43°35' E 007°08'0 0.1
2016-Jul-19 13:32N 43°35' E 007°08'0 0.0
2016-Jul-19 12:32N 43°35' E 007°08'0 0.0
2016-Jul-19 11:32N 43°35' E 007°08'0 0.0
2016-Jul-19 10:32N 43°35' E 007°08'0 0.0
2016-Jul-19 09:32N 43°35' E 007°08'4 3.8
2016-Jul-19 08:33N 43°32' E 007°05'1 1.4
2016-Jul-19 07:31N 43°32' E 007°03'0 0.0
2016-Jul-19 04:31N 43°32' E 007°03'0 0.0
2016-Jul-19 03:31N 43°32' E 007°03'0 0.0
2016-Jul-19 02:31N 43°32' E 007°03'0 0.0
2016-Jul-19 01:31N 43°32' E 007°03'0 0.0
2016-Jul-19 00:31N 43°32' E 007°03'0 0.0
2016-Jul-18 19:25N 43°32' E 007°03'0 0.0
2016-Jul-18 18:25N 43°32' E 007°03'0 0.0
2016-Jul-18 16:25N 43°32' E 007°03'0 0.0
2016-Jul-18 15:19N 43°32' E 007°03'0 0.0
2016-Jul-18 14:28N 43°32' E 007°03'0 0.0
2016-Jul-18 13:31N 43°32' E 007°03'0 0.0
2016-Jul-18 12:31N 43°32' E 007°03'0 0.0
2016-Jul-18 11:31N 43°32' E 007°03'0 0.0
2016-Jul-18 10:31N 43°32' E 007°03'0 0.0
2016-Jul-18 09:31N 43°32' E 007°03'0 0.0
2016-Jul-18 08:31N 43°32' E 007°03'0 0.0
2016-Jul-18 07:31N 43°32' E 007°03'0 0.0
2016-Jul-18 06:19N 43°32' E 007°03'0 0.0
2016-Jul-18 05:31N 43°32' E 007°03'0 0.0
2016-Jul-18 04:25N 43°32' E 007°03'24 1.4
2016-Jul-17 11:10N 43°16' E 006°37'0 0.0
2016-Jul-17 10:31N 43°16' E 006°37'16 2.7
2016-Jul-17 04:33N 43°16' E 006°59'1110.8
2016-Jul-17 03:33N 43°15' E 007°14'1010.4
2016-Jul-17 02:33N 43°14' E 007°28'9 9.3
2016-Jul-17 01:33N 43°13' E 007°41'9 8.9
2016-Jul-17 00:33N 43°12' E 007°53'10 9.8
2016-Jul-16 23:33N 43°10' E 008°06'1110.8
2016-Jul-16 22:33N 43°08' E 008°21'1110.9
2016-Jul-16 21:30N 43°07' E 008°36'1010.6
2016-Jul-16 20:33N 43°05' E 008°50'1010.4
2016-Jul-16 19:33N 43°03' E 009°04'10 9.8
2016-Jul-16 18:33N 43°02' E 009°17'  
Track history (hours):
 
Tides and Currents Weather Stations Pressure Air Temp Water Temp Dewpoint Dewpoint Depression Visibility Wind Speed Wind Dir Waves Ship Positions

Superfun

Last reported at 2016-Jul-22 17:30 UTC. Time now 2016-Jul-24 16:40 UTC.
Position N 43°17' E 006°38'.

Length 40 m.

Type: Other ship. MMSI: 319163000.

Date/timePositionNaut miles runAvg speedWind from/ knotsBaromVisibWave heightAir tempDewpointWater temp
2016-Jul-22 17:30N 43°17' E 006°38'44 1.6
2016-Jul-21 13:23N 43°44' E 007°26'0 0.0
2016-Jul-20 03:32N 43°44' E 007°26'6 0.6
2016-Jul-19 18:31N 43°42' E 007°19'0 0.2
2016-Jul-19 17:08N 43°42' E 007°19'0 0.0
2016-Jul-19 16:32N 43°42' E 007°19'2 2.5
2016-Jul-19 15:32N 43°41' E 007°15'8 8.5
2016-Jul-19 14:34N 43°35' E 007°08'0 0.1
2016-Jul-19 13:32N 43°35' E 007°08'0 0.0
2016-Jul-19 12:32N 43°35' E 007°08'0 0.0
2016-Jul-19 11:32N 43°35' E 007°08'0 0.0
2016-Jul-19 10:32N 43°35' E 007°08'0 0.0
2016-Jul-19 09:32N 43°35' E 007°08'4 3.8
2016-Jul-19 08:33N 43°32' E 007°05'1 1.4
2016-Jul-19 07:31N 43°32' E 007°03'0 0.0
2016-Jul-19 04:31N 43°32' E 007°03'0 0.0
2016-Jul-19 03:31N 43°32' E 007°03'0 0.0
2016-Jul-19 02:31N 43°32' E 007°03'0 0.0
2016-Jul-19 01:31N 43°32' E 007°03'0 0.0
2016-Jul-19 00:31N 43°32' E 007°03'0 0.0
2016-Jul-18 19:25N 43°32' E 007°03'0 0.0
2016-Jul-18 18:25N 43°32' E 007°03'0 0.0
2016-Jul-18 16:25N 43°32' E 007°03'0 0.0
2016-Jul-18 15:19N 43°32' E 007°03'0 0.0
2016-Jul-18 14:28N 43°32' E 007°03'0 0.0
2016-Jul-18 13:31N 43°32' E 007°03'0 0.0
2016-Jul-18 12:31N 43°32' E 007°03'0 0.0
2016-Jul-18 11:31N 43°32' E 007°03'0 0.0
2016-Jul-18 10:31N 43°32' E 007°03'0 0.0
2016-Jul-18 09:31N 43°32' E 007°03'0 0.0
2016-Jul-18 08:31N 43°32' E 007°03'0 0.0
2016-Jul-18 07:31N 43°32' E 007°03'0 0.0
2016-Jul-18 06:19N 43°32' E 007°03'0 0.0
2016-Jul-18 05:31N 43°32' E 007°03'0 0.0
2016-Jul-18 04:25N 43°32' E 007°03'24 1.4
2016-Jul-17 11:10N 43°16' E 006°37'0 0.0
2016-Jul-17 10:31N 43°16' E 006°37'16 2.7
2016-Jul-17 04:33N 43°16' E 006°59'1110.8
2016-Jul-17 03:33N 43°15' E 007°14'1010.4
2016-Jul-17 02:33N 43°14' E 007°28'9 9.3
2016-Jul-17 01:33N 43°13' E 007°41'9 8.9
2016-Jul-17 00:33N 43°12' E 007°53'10 9.8
2016-Jul-16 23:33N 43°10' E 008°06'1110.8
2016-Jul-16 22:33N 43°08' E 008°21'1110.9
2016-Jul-16 21:30N 43°07' E 008°36'1010.6
2016-Jul-16 20:33N 43°05' E 008°50'1010.4
2016-Jul-16 19:33N 43°03' E 009°04'10 9.8
2016-Jul-16 18:33N 43°02' E 009°17'  

Dump ship's entire track history